sensor_id;sensor_type;location;lat;lon;timestamp;temperature;humidity
9179;DHT22;4624;48.126;11.546;2023-04-01T00:00:45;8.40;97.60
9179;DHT22;4624;48.126;11.546;2023-04-01T00:03:12;8.40;97.70
9179;DHT22;4624;48.126;11.546;2023-04-01T00:05:39;8.40;97.90
9179;DHT22;4624;48.126;11.546;2023-04-01T00:08:06;8.40;98.00
9179;DHT22;4624;48.126;11.546;2023-04-01T00:10:32;8.30;98.10
9179;DHT22;4624;48.126;11.546;2023-04-01T00:13:00;8.30;98.20
9179;DHT22;4624;48.126;11.546;2023-04-01T00:15:26;8.30;98.20
9179;DHT22;4624;48.126;11.546;2023-04-01T00:17:54;8.30;98.20
9179;DHT22;4624;48.126;11.546;2023-04-01T00:20:21;8.20;98.20
9179;DHT22;4624;48.126;11.546;2023-04-01T00:22:48;8.20;98.20
9179;DHT22;4624;48.126;11.546;2023-04-01T00:25:15;8.20;98.20
9179;DHT22;4624;48.126;11.546;2023-04-01T00:27:42;8.20;98.30
9179;DHT22;4624;48.126;11.546;2023-04-01T00:30:09;8.20;98.30
9179;DHT22;4624;48.126;11.546;2023-04-01T00:32:36;8.10;98.30
9179;DHT22;4624;48.126;11.546;2023-04-01T00:35:05;8.10;98.40
9179;DHT22;4624;48.126;11.546;2023-04-01T00:37:34;8.10;98.50
9179;DHT22;4624;48.126;11.546;2023-04-01T00:40:03;8.10;98.50
9179;DHT22;4624;48.126;11.546;2023-04-01T00:42:30;8.10;98.40
9179;DHT22;4624;48.126;11.546;2023-04-01T00:44:57;8.10;98.50
9179;DHT22;4624;48.126;11.546;2023-04-01T00:47:25;8.10;98.60
9179;DHT22;4624;48.126;11.546;2023-04-01T00:49:54;8.10;98.50
9179;DHT22;4624;48.126;11.546;2023-04-01T00:52:25;8.10;98.50
9179;DHT22;4624;48.126;11.546;2023-04-01T00:54:55;8.10;98.60
9179;DHT22;4624;48.126;11.546;2023-04-01T00:57:28;8.10;98.60
9179;DHT22;4624;48.126;11.546;2023-04-01T00:59:56;8.10;98.70
9179;DHT22;4624;48.126;11.546;2023-04-01T01:02:23;8.10;98.60
9179;DHT22;4624;48.126;11.546;2023-04-01T01:04:50;8.10;98.70
9179;DHT22;4624;48.126;11.546;2023-04-01T01:07:25;8.20;98.70
9179;DHT22;4624;48.126;11.546;2023-04-01T01:10:01;8.10;98.60
9179;DHT22;4624;48.126;11.546;2023-04-01T01:12:34;8.20;98.60
9179;DHT22;4624;48.126;11.546;2023-04-01T01:15:09;8.20;98.70
9179;DHT22;4624;48.126;11.546;2023-04-01T01:17:47;8.20;98.60
9179;DHT22;4624;48.126;11.546;2023-04-01T01:29:01;8.30;98.40
9179;DHT22;4624;48.126;11.546;2023-04-01T01:31:36;8.30;98.40
9179;DHT22;4624;48.126;11.546;2023-04-01T01:34:14;8.30;98.40
9179;DHT22;4624;48.126;11.546;2023-04-01T01:36:45;8.30;98.40
9179;DHT22;4624;48.126;11.546;2023-04-01T01:39:16;8.30;98.40
9179;DHT22;4624;48.126;11.546;2023-04-01T01:41:44;8.30;98.40
9179;DHT22;4624;48.126;11.546;2023-04-01T01:44:16;8.30;98.40
9179;DHT22;4624;48.126;11.546;2023-04-01T01:46:44;8.30;98.40
9179;DHT22;4624;48.126;11.546;2023-04-01T01:49:12;8.30;98.50
9179;DHT22;4624;48.126;11.546;2023-04-01T01:51:40;8.20;98.40
9179;DHT22;4624;48.126;11.546;2023-04-01T01:54:13;8.20;98.50
9179;DHT22;4624;48.126;11.546;2023-04-01T01:56:41;8.20;98.50
9179;DHT22;4624;48.126;11.546;2023-04-01T01:59:11;8.20;98.50
9179;DHT22;4624;48.126;11.546;2023-04-01T02:01:42;8.20;98.40
9179;DHT22;4624;48.126;11.546;2023-04-01T02:04:11;8.20;98.40
9179;DHT22;4624;48.126;11.546;2023-04-01T02:06:43;8.20;98.50
9179;DHT22;4624;48.126;11.546;2023-04-01T02:09:12;8.20;98.40
9179;DHT22;4624;48.126;11.546;2023-04-01T02:11:43;8.30;98.40
9179;DHT22;4624;48.126;11.546;2023-04-01T02:14:14;8.20;98.40
9179;DHT22;4624;48.126;11.546;2023-04-01T02:16:46;8.30;98.40
9179;DHT22;4624;48.126;11.546;2023-04-01T02:19:16;8.20;98.30
9179;DHT22;4624;48.126;11.546;2023-04-01T02:21:49;8.20;98.30
9179;DHT22;4624;48.126;11.546;2023-04-01T02:24:19;8.20;98.20
9179;DHT22;4624;48.126;11.546;2023-04-01T02:26:48;8.20;98.20
9179;DHT22;4624;48.126;11.546;2023-04-01T02:29:19;8.20;98.20
9179;DHT22;4624;48.126;11.546;2023-04-01T02:31:47;8.20;98.20
9179;DHT22;4624;48.126;11.546;2023-04-01T02:34:14;8.20;98.10
9179;DHT22;4624;48.126;11.546;2023-04-01T02:36:41;8.20;98.00
9179;DHT22;4624;48.126;11.546;2023-04-01T02:39:08;8.20;98.00
9179;DHT22;4624;48.126;11.546;2023-04-01T02:41:40;8.20;97.90
9179;DHT22;4624;48.126;11.546;2023-04-01T02:44:07;8.20;97.90
9179;DHT22;4624;48.126;11.546;2023-04-01T02:46:34;8.20;97.90
9179;DHT22;4624;48.126;11.546;2023-04-01T02:49:00;8.20;97.80
9179;DHT22;4624;48.126;11.546;2023-04-01T02:51:27;8.20;97.80
9179;DHT22;4624;48.126;11.546;2023-04-01T02:53:54;8.20;97.80
9179;DHT22;4624;48.126;11.546;2023-04-01T02:56:20;8.20;97.80
9179;DHT22;4624;48.126;11.546;2023-04-01T02:58:49;8.20;97.80
9179;DHT22;4624;48.126;11.546;2023-04-01T03:01:16;8.20;97.90
9179;DHT22;4624;48.126;11.546;2023-04-01T03:03:42;8.20;97.90
9179;DHT22;4624;48.126;11.546;2023-04-01T03:06:11;8.20;97.90
9179;DHT22;4624;48.126;11.546;2023-04-01T03:08:38;8.10;97.80
9179;DHT22;4624;48.126;11.546;2023-04-01T03:11:05;8.10;97.90
9179;DHT22;4624;48.126;11.546;2023-04-01T03:13:32;8.10;97.90
9179;DHT22;4624;48.126;11.546;2023-04-01T03:16:01;8.10;97.90
9179;DHT22;4624;48.126;11.546;2023-04-01T03:18:28;8.00;97.90
9179;DHT22;4624;48.126;11.546;2023-04-01T03:20:55;8.00;97.90
9179;DHT22;4624;48.126;11.546;2023-04-01T03:23:21;8.10;98.00
9179;DHT22;4624;48.126;11.546;2023-04-01T03:25:49;8.10;98.00
9179;DHT22;4624;48.126;11.546;2023-04-01T03:28:16;8.00;98.00
9179;DHT22;4624;48.126;11.546;2023-04-01T03:30:43;8.00;97.90
9179;DHT22;4624;48.126;11.546;2023-04-01T03:33:11;8.00;97.90
9179;DHT22;4624;48.126;11.546;2023-04-01T03:35:37;8.00;98.00
9179;DHT22;4624;48.126;11.546;2023-04-01T03:38:04;8.00;98.00
9179;DHT22;4624;48.126;11.546;2023-04-01T03:40:31;7.90;97.90
9179;DHT22;4624;48.126;11.546;2023-04-01T03:42:59;7.90;98.00
9179;DHT22;4624;48.126;11.546;2023-04-01T03:45:26;7.80;98.00
9179;DHT22;4624;48.126;11.546;2023-04-01T03:47:53;7.80;98.00
9179;DHT22;4624;48.126;11.546;2023-04-01T03:50:22;7.80;98.20
9179;DHT22;4624;48.126;11.546;2023-04-01T03:52:48;7.80;98.20
9179;DHT22;4624;48.126;11.546;2023-04-01T03:55:15;7.80;98.20
9179;DHT22;4624;48.126;11.546;2023-04-01T03:57:43;7.80;98.30
9179;DHT22;4624;48.126;11.546;2023-04-01T04:00:11;7.80;98.40
9179;DHT22;4624;48.126;11.546;2023-04-01T04:02:38;7.80;98.30
9179;DHT22;4624;48.126;11.546;2023-04-01T04:05:05;7.80;98.40
9179;DHT22;4624;48.126;11.546;2023-04-01T04:07:34;7.80;98.40
9179;DHT22;4624;48.126;11.546;2023-04-01T04:10:01;7.80;98.50
9179;DHT22;4624;48.126;11.546;2023-04-01T04:12:27;7.80;98.50
9179;DHT22;4624;48.126;11.546;2023-04-01T04:14:54;7.70;98.60
9179;DHT22;4624;48.126;11.546;2023-04-01T04:17:21;7.70;98.70
9179;DHT22;4624;48.126;11.546;2023-04-01T04:19:48;7.70;98.70
9179;DHT22;4624;48.126;11.546;2023-04-01T04:22:14;7.70;98.80
9179;DHT22;4624;48.126;11.546;2023-04-01T04:24:43;7.70;98.90
9179;DHT22;4624;48.126;11.546;2023-04-01T04:27:09;7.70;99.00
9179;DHT22;4624;48.126;11.546;2023-04-01T04:29:36;7.70;99.00
9179;DHT22;4624;48.126;11.546;2023-04-01T04:32:03;7.70;99.10
9179;DHT22;4624;48.126;11.546;2023-04-01T04:34:30;7.70;99.10
9179;DHT22;4624;48.126;11.546;2023-04-01T04:36:57;7.70;99.10
9179;DHT22;4624;48.126;11.546;2023-04-01T04:39:23;7.80;99.10
9179;DHT22;4624;48.126;11.546;2023-04-01T04:41:52;7.80;99.10
9179;DHT22;4624;48.126;11.546;2023-04-01T04:44:18;7.80;99.10
9179;DHT22;4624;48.126;11.546;2023-04-01T04:46:45;7.80;99.10
9179;DHT22;4624;48.126;11.546;2023-04-01T04:49:12;7.80;99.10
9179;DHT22;4624;48.126;11.546;2023-04-01T04:51:39;7.80;99.10
9179;DHT22;4624;48.126;11.546;2023-04-01T04:54:06;7.80;99.10
9179;DHT22;4624;48.126;11.546;2023-04-01T04:56:33;7.80;99.10
9179;DHT22;4624;48.126;11.546;2023-04-01T04:59:02;7.90;99.20
9179;DHT22;4624;48.126;11.546;2023-04-01T05:01:29;7.80;99.10
9179;DHT22;4624;48.126;11.546;2023-04-01T05:03:56;7.80;99.10
9179;DHT22;4624;48.126;11.546;2023-04-01T05:06:22;7.80;99.10
9179;DHT22;4624;48.126;11.546;2023-04-01T05:08:51;7.90;99.10
9179;DHT22;4624;48.126;11.546;2023-04-01T05:11:19;7.90;99.00
9179;DHT22;4624;48.126;11.546;2023-04-01T05:13:46;8.00;98.90
9179;DHT22;4624;48.126;11.546;2023-04-01T05:16:17;8.00;98.90
9179;DHT22;4624;48.126;11.546;2023-04-01T05:18:44;8.10;98.80
9179;DHT22;4624;48.126;11.546;2023-04-01T05:21:12;8.10;98.60
9179;DHT22;4624;48.126;11.546;2023-04-01T05:23:40;8.10;98.40
9179;DHT22;4624;48.126;11.546;2023-04-01T05:26:08;8.10;98.20
9179;DHT22;4624;48.126;11.546;2023-04-01T05:28:35;8.10;98.20
9179;DHT22;4624;48.126;11.546;2023-04-01T05:31:03;8.20;98.00
9179;DHT22;4624;48.126;11.546;2023-04-01T05:33:31;8.20;97.90
9179;DHT22;4624;48.126;11.546;2023-04-01T05:36:06;8.30;97.90
9179;DHT22;4624;48.126;11.546;2023-04-01T05:38:33;8.30;97.70
9179;DHT22;4624;48.126;11.546;2023-04-01T05:41:00;8.30;97.60
9179;DHT22;4624;48.126;11.546;2023-04-01T05:43:27;8.30;97.40
9179;DHT22;4624;48.126;11.546;2023-04-01T05:45:55;8.20;97.30
9179;DHT22;4624;48.126;11.546;2023-04-01T05:48:23;8.30;97.30
9179;DHT22;4624;48.126;11.546;2023-04-01T05:50:53;8.30;97.30
9179;DHT22;4624;48.126;11.546;2023-04-01T05:53:20;8.30;97.10
9179;DHT22;4624;48.126;11.546;2023-04-01T05:55:47;8.30;97.00
9179;DHT22;4624;48.126;11.546;2023-04-01T05:58:14;8.40;97.10
9179;DHT22;4624;48.126;11.546;2023-04-01T06:00:41;8.40;97.00
9179;DHT22;4624;48.126;11.546;2023-04-01T06:03:07;8.40;96.80
9179;DHT22;4624;48.126;11.546;2023-04-01T06:05:39;8.40;96.80
9179;DHT22;4624;48.126;11.546;2023-04-01T06:08:10;8.50;96.80
9179;DHT22;4624;48.126;11.546;2023-04-01T06:10:44;8.70;96.80
9179;DHT22;4624;48.126;11.546;2023-04-01T06:13:21;8.70;96.60
9179;DHT22;4624;48.126;11.546;2023-04-01T06:15:58;8.70;96.50
9179;DHT22;4624;48.126;11.546;2023-04-01T06:18:52;8.70;96.40
9179;DHT22;4624;48.126;11.546;2023-04-01T06:21:42;8.80;96.10
9179;DHT22;4624;48.126;11.546;2023-04-01T06:24:24;8.80;95.80
9179;DHT22;4624;48.126;11.546;2023-04-01T06:27:02;8.90;95.60
9179;DHT22;4624;48.126;11.546;2023-04-01T06:29:49;9.00;95.90
9179;DHT22;4624;48.126;11.546;2023-04-01T06:32:29;9.10;95.50
9179;DHT22;4624;48.126;11.546;2023-04-01T06:41:06;9.30;94.60
9179;DHT22;4624;48.126;11.546;2023-04-01T06:43:43;9.40;94.50
9179;DHT22;4624;48.126;11.546;2023-04-01T06:46:19;9.50;94.40
9179;DHT22;4624;48.126;11.546;2023-04-01T06:49:02;9.60;94.40
9179;DHT22;4624;48.126;11.546;2023-04-01T06:51:36;9.60;94.40
9179;DHT22;4624;48.126;11.546;2023-04-01T06:54:09;9.60;94.10
9179;DHT22;4624;48.126;11.546;2023-04-01T06:56:41;9.70;94.60
9179;DHT22;4624;48.126;11.546;2023-04-01T06:59:13;9.90;94.10
9179;DHT22;4624;48.126;11.546;2023-04-01T07:01:45;10.10;93.00
9179;DHT22;4624;48.126;11.546;2023-04-01T07:04:16;10.30;92.60
9179;DHT22;4624;48.126;11.546;2023-04-01T07:06:48;10.40;92.10
9179;DHT22;4624;48.126;11.546;2023-04-01T07:09:19;10.50;92.20
9179;DHT22;4624;48.126;11.546;2023-04-01T07:11:49;10.60;92.10
9179;DHT22;4624;48.126;11.546;2023-04-01T07:14:20;10.50;91.40
9179;DHT22;4624;48.126;11.546;2023-04-01T07:16:51;10.40;91.40
9179;DHT22;4624;48.126;11.546;2023-04-01T07:19:25;10.20;91.20
9179;DHT22;4624;48.126;11.546;2023-04-01T07:21:55;10.20;91.30
9179;DHT22;4624;48.126;11.546;2023-04-01T07:24:25;10.20;91.50
9179;DHT22;4624;48.126;11.546;2023-04-01T07:26:55;10.30;91.60
9179;DHT22;4624;48.126;11.546;2023-04-01T07:29:23;10.60;91.40
9179;DHT22;4624;48.126;11.546;2023-04-01T07:32:13;10.60;91.10
9179;DHT22;4624;48.126;11.546;2023-04-01T07:34:50;11.10;91.60
9179;DHT22;4624;48.126;11.546;2023-04-01T07:37:26;11.60;91.10
9179;DHT22;4624;48.126;11.546;2023-04-01T07:40:01;12.00;90.00
9179;DHT22;4624;48.126;11.546;2023-04-01T07:42:37;12.20;88.20
9179;DHT22;4624;48.126;11.546;2023-04-01T07:45:17;12.50;87.90
9179;DHT22;4624;48.126;11.546;2023-04-01T07:48:05;12.70;87.10
9179;DHT22;4624;48.126;11.546;2023-04-01T07:50:39;13.00;86.40
9179;DHT22;4624;48.126;11.546;2023-04-01T07:53:11;13.10;84.50
9179;DHT22;4624;48.126;11.546;2023-04-01T07:55:46;13.20;84.50
9179;DHT22;4624;48.126;11.546;2023-04-01T07:58:22;13.20;83.10
9179;DHT22;4624;48.126;11.546;2023-04-01T08:00:56;13.00;82.80
9179;DHT22;4624;48.126;11.546;2023-04-01T08:03:51;13.00;83.00
9179;DHT22;4624;48.126;11.546;2023-04-01T08:06:28;12.60;82.30
9179;DHT22;4624;48.126;11.546;2023-04-01T08:09:04;12.40;82.80
9179;DHT22;4624;48.126;11.546;2023-04-01T08:11:41;12.20;83.00
9179;DHT22;4624;48.126;11.546;2023-04-01T08:14:19;11.90;83.40
9179;DHT22;4624;48.126;11.546;2023-04-01T08:16:52;12.00;83.50
9179;DHT22;4624;48.126;11.546;2023-04-01T08:19:31;12.00;83.20
9179;DHT22;4624;48.126;11.546;2023-04-01T08:22:05;12.20;82.60
9179;DHT22;4624;48.126;11.546;2023-04-01T08:24:38;12.10;82.50
9179;DHT22;4624;48.126;11.546;2023-04-01T08:27:14;11.90;82.50
9179;DHT22;4624;48.126;11.546;2023-04-01T08:29:48;12.10;82.70
9179;DHT22;4624;48.126;11.546;2023-04-01T08:32:20;12.00;81.50
9179;DHT22;4624;48.126;11.546;2023-04-01T08:34:54;12.30;82.60
9179;DHT22;4624;48.126;11.546;2023-04-01T08:37:25;13.20;80.60
9179;DHT22;4624;48.126;11.546;2023-04-01T08:39:58;13.40;79.30
9179;DHT22;4624;48.126;11.546;2023-04-01T08:42:50;13.60;79.40
9179;DHT22;4624;48.126;11.546;2023-04-01T08:45:30;13.90;77.90
9179;DHT22;4624;48.126;11.546;2023-04-01T08:48:12;13.60;77.50
9179;DHT22;4624;48.126;11.546;2023-04-01T08:51:08;13.50;77.80
9179;DHT22;4624;48.126;11.546;2023-04-01T08:54:00;13.10;77.50
9179;DHT22;4624;48.126;11.546;2023-04-01T08:56:34;12.80;77.80
9179;DHT22;4624;48.126;11.546;2023-04-01T08:59:22;12.60;79.10
9179;DHT22;4624;48.126;11.546;2023-04-01T09:02:12;12.60;79.40
9179;DHT22;4624;48.126;11.546;2023-04-01T09:05:07;12.50;80.30
9179;DHT22;4624;48.126;11.546;2023-04-01T09:07:48;12.70;79.70
9179;DHT22;4624;48.126;11.546;2023-04-01T09:10:39;13.10;79.00
9179;DHT22;4624;48.126;11.546;2023-04-01T09:13:32;13.20;78.70
9179;DHT22;4624;48.126;11.546;2023-04-01T09:16:15;13.50;78.40
9179;DHT22;4624;48.126;11.546;2023-04-01T09:19:15;13.70;78.20
9179;DHT22;4624;48.126;11.546;2023-04-01T09:21:57;14.50;76.80
9179;DHT22;4624;48.126;11.546;2023-04-01T09:24:33;15.10;74.50
9179;DHT22;4624;48.126;11.546;2023-04-01T09:27:08;15.10;73.20
9179;DHT22;4624;48.126;11.546;2023-04-01T09:30:01;14.80;72.60
9179;DHT22;4624;48.126;11.546;2023-04-01T09:32:53;14.30;71.60
9179;DHT22;4624;48.126;11.546;2023-04-01T09:35:38;13.80;72.40
9179;DHT22;4624;48.126;11.546;2023-04-01T09:38:21;13.50;73.30
9179;DHT22;4624;48.126;11.546;2023-04-01T09:40:55;13.60;73.70
9179;DHT22;4624;48.126;11.546;2023-04-01T09:43:27;13.60;73.20
9179;DHT22;4624;48.126;11.546;2023-04-01T09:46:10;13.60;72.90
9179;DHT22;4624;48.126;11.546;2023-04-01T09:49:00;13.80;72.80
9179;DHT22;4624;48.126;11.546;2023-04-01T09:51:37;13.90;72.50
9179;DHT22;4624;48.126;11.546;2023-04-01T09:54:19;14.30;72.70
9179;DHT22;4624;48.126;11.546;2023-04-01T09:57:18;14.40;71.50
9179;DHT22;4624;48.126;11.546;2023-04-01T10:00:20;14.30;70.80
9179;DHT22;4624;48.126;11.546;2023-04-01T10:03:32;14.10;70.20
9179;DHT22;4624;48.126;11.546;2023-04-01T10:06:36;14.10;70.40
9179;DHT22;4624;48.126;11.546;2023-04-01T10:09:39;13.90;71.10
9179;DHT22;4624;48.126;11.546;2023-04-01T10:16:03;13.70;71.60
9179;DHT22;4624;48.126;11.546;2023-04-01T10:18:56;13.50;72.10
9179;DHT22;4624;48.126;11.546;2023-04-01T10:22:04;13.20;72.30
9179;DHT22;4624;48.126;11.546;2023-04-01T10:25:04;13.20;72.70
9179;DHT22;4624;48.126;11.546;2023-04-01T10:31:20;13.30;72.90
9179;DHT22;4624;48.126;11.546;2023-04-01T10:34:10;13.50;72.90
9179;DHT22;4624;48.126;11.546;2023-04-01T10:36:55;13.80;72.70
9179;DHT22;4624;48.126;11.546;2023-04-01T10:40:02;14.00;71.40
9179;DHT22;4624;48.126;11.546;2023-04-01T10:54:46;13.30;73.30
9179;DHT22;4624;48.126;11.546;2023-04-01T10:57:40;13.20;75.30
9179;DHT22;4624;48.126;11.546;2023-04-01T11:00:32;13.20;75.10
9179;DHT22;4624;48.126;11.546;2023-04-01T11:03:37;13.10;75.40
9179;DHT22;4624;48.126;11.546;2023-04-01T11:06:37;12.90;76.30
9179;DHT22;4624;48.126;11.546;2023-04-01T11:15:28;12.90;80.80
9179;DHT22;4624;48.126;11.546;2023-04-01T11:21:35;12.90;82.60
9179;DHT22;4624;48.126;11.546;2023-04-01T11:24:19;12.80;83.40
9179;DHT22;4624;48.126;11.546;2023-04-01T11:26:53;12.80;84.30
9179;DHT22;4624;48.126;11.546;2023-04-01T11:29:53;12.70;85.00
9179;DHT22;4624;48.126;11.546;2023-04-01T11:32:31;13.00;84.20
9179;DHT22;4624;48.126;11.546;2023-04-01T11:35:19;13.40;83.40
9179;DHT22;4624;48.126;11.546;2023-04-01T11:37:57;13.50;81.60
9179;DHT22;4624;48.126;11.546;2023-04-01T11:40:32;13.50;81.00
9179;DHT22;4624;48.126;11.546;2023-04-01T11:43:08;13.40;80.80
9179;DHT22;4624;48.126;11.546;2023-04-01T11:45:43;13.20;80.90
9179;DHT22;4624;48.126;11.546;2023-04-01T11:48:20;12.70;80.90
9179;DHT22;4624;48.126;11.546;2023-04-01T11:51:02;12.40;82.60
9179;DHT22;4624;48.126;11.546;2023-04-01T11:53:39;12.10;84.40
9179;DHT22;4624;48.126;11.546;2023-04-01T11:56:17;11.80;86.60
9179;DHT22;4624;48.126;11.546;2023-04-01T12:01:52;11.30;91.10
9179;DHT22;4624;48.126;11.546;2023-04-01T12:04:35;11.20;91.60
9179;DHT22;4624;48.126;11.546;2023-04-01T12:07:10;11.00;92.50
9179;DHT22;4624;48.126;11.546;2023-04-01T12:09:43;10.90;92.70
9179;DHT22;4624;48.126;11.546;2023-04-01T12:12:17;10.80;93.20
9179;DHT22;4624;48.126;11.546;2023-04-01T12:14:54;10.70;93.10
9179;DHT22;4624;48.126;11.546;2023-04-01T12:17:35;10.50;93.40
9179;DHT22;4624;48.126;11.546;2023-04-01T12:20:22;10.40;93.80
9179;DHT22;4624;48.126;11.546;2023-04-01T12:22:58;10.30;94.20
9179;DHT22;4624;48.126;11.546;2023-04-01T12:25:45;10.20;94.70
9179;DHT22;4624;48.126;11.546;2023-04-01T12:28:20;10.20;95.00
9179;DHT22;4624;48.126;11.546;2023-04-01T12:31:01;10.20;95.10
9179;DHT22;4624;48.126;11.546;2023-04-01T12:33:52;10.10;95.10
9179;DHT22;4624;48.126;11.546;2023-04-01T12:36:32;10.10;95.30
9179;DHT22;4624;48.126;11.546;2023-04-01T12:39:22;10.00;95.50
9179;DHT22;4624;48.126;11.546;2023-04-01T12:42:01;10.00;95.40
9179;DHT22;4624;48.126;11.546;2023-04-01T12:47:44;9.80;96.30
9179;DHT22;4624;48.126;11.546;2023-04-01T12:50:28;9.80;96.50
9179;DHT22;4624;48.126;11.546;2023-04-01T12:53:11;9.70;96.20
9179;DHT22;4624;48.126;11.546;2023-04-01T12:55:45;9.70;96.30
9179;DHT22;4624;48.126;11.546;2023-04-01T13:01:30;9.70;96.50
9179;DHT22;4624;48.126;11.546;2023-04-01T13:04:22;9.70;96.50
9179;DHT22;4624;48.126;11.546;2023-04-01T13:09:49;9.70;96.50
9179;DHT22;4624;48.126;11.546;2023-04-01T13:12:35;9.70;96.50
9179;DHT22;4624;48.126;11.546;2023-04-01T13:15:23;9.70;96.50
9179;DHT22;4624;48.126;11.546;2023-04-01T13:17:54;9.70;96.70
9179;DHT22;4624;48.126;11.546;2023-04-01T13:20:36;9.70;96.70
9179;DHT22;4624;48.126;11.546;2023-04-01T13:23:24;9.80;96.80
9179;DHT22;4624;48.126;11.546;2023-04-01T13:26:04;9.70;96.70
9179;DHT22;4624;48.126;11.546;2023-04-01T13:28:35;9.70;97.00
9179;DHT22;4624;48.126;11.546;2023-04-01T13:31:09;9.70;97.20
9179;DHT22;4624;48.126;11.546;2023-04-01T13:33:45;9.70;97.10
9179;DHT22;4624;48.126;11.546;2023-04-01T13:36:19;9.70;97.10
9179;DHT22;4624;48.126;11.546;2023-04-01T13:39:17;9.70;97.40
9179;DHT22;4624;48.126;11.546;2023-04-01T13:44:39;9.60;98.00
9179;DHT22;4624;48.126;11.546;2023-04-01T13:47:33;9.60;98.20
9179;DHT22;4624;48.126;11.546;2023-04-01T13:50:17;9.60;98.40
9179;DHT22;4624;48.126;11.546;2023-04-01T13:53:04;9.60;98.70
9179;DHT22;4624;48.126;11.546;2023-04-01T13:55:46;9.60;98.60
9179;DHT22;4624;48.126;11.546;2023-04-01T13:58:34;9.70;98.70
9179;DHT22;4624;48.126;11.546;2023-04-01T14:01:08;9.70;98.40
9179;DHT22;4624;48.126;11.546;2023-04-01T14:03:54;9.80;98.40
9179;DHT22;4624;48.126;11.546;2023-04-01T14:06:33;9.80;98.40
9179;DHT22;4624;48.126;11.546;2023-04-01T14:09:25;9.90;98.30
9179;DHT22;4624;48.126;11.546;2023-04-01T14:12:04;9.90;98.30
9179;DHT22;4624;48.126;11.546;2023-04-01T14:14:39;9.80;98.40
9179;DHT22;4624;48.126;11.546;2023-04-01T14:17:20;9.90;98.70
9179;DHT22;4624;48.126;11.546;2023-04-01T14:19:58;9.80;98.80
9179;DHT22;4624;48.126;11.546;2023-04-01T14:22:32;9.90;98.70
9179;DHT22;4624;48.126;11.546;2023-04-01T14:25:27;9.90;98.60
9179;DHT22;4624;48.126;11.546;2023-04-01T14:28:07;9.80;98.20
9179;DHT22;4624;48.126;11.546;2023-04-01T14:30:51;9.90;98.20
9179;DHT22;4624;48.126;11.546;2023-04-01T14:33:28;9.90;97.90
9179;DHT22;4624;48.126;11.546;2023-04-01T14:36:18;10.00;97.30
9179;DHT22;4624;48.126;11.546;2023-04-01T14:38:58;10.00;97.40
9179;DHT22;4624;48.126;11.546;2023-04-01T14:41:34;10.00;97.50
9179;DHT22;4624;48.126;11.546;2023-04-01T14:44:23;10.10;97.50
9179;DHT22;4624;48.126;11.546;2023-04-01T14:49:47;10.10;97.80
9179;DHT22;4624;48.126;11.546;2023-04-01T14:52:23;10.10;97.90
9179;DHT22;4624;48.126;11.546;2023-04-01T14:54:52;10.00;98.10
9179;DHT22;4624;48.126;11.546;2023-04-01T14:57:24;10.00;98.30
9179;DHT22;4624;48.126;11.546;2023-04-01T14:59:58;9.90;98.80
9179;DHT22;4624;48.126;11.546;2023-04-01T15:05:31;10.00;98.50
9179;DHT22;4624;48.126;11.546;2023-04-01T15:08:03;9.90;98.90
9179;DHT22;4624;48.126;11.546;2023-04-01T15:10:44;9.90;99.00
9179;DHT22;4624;48.126;11.546;2023-04-01T15:13:16;9.80;98.80
9179;DHT22;4624;48.126;11.546;2023-04-01T15:16:01;9.80;98.80
9179;DHT22;4624;48.126;11.546;2023-04-01T15:18:38;9.80;98.70
9179;DHT22;4624;48.126;11.546;2023-04-01T15:21:20;9.70;98.70
9179;DHT22;4624;48.126;11.546;2023-04-01T15:23:57;9.70;98.50
9179;DHT22;4624;48.126;11.546;2023-04-01T15:26:42;9.80;98.20
9179;DHT22;4624;48.126;11.546;2023-04-01T15:32:17;9.90;97.60
9179;DHT22;4624;48.126;11.546;2023-04-01T15:34:50;10.00;96.80
9179;DHT22;4624;48.126;11.546;2023-04-01T15:37:26;10.00;96.50
9179;DHT22;4624;48.126;11.546;2023-04-01T15:39:58;10.10;96.60
9179;DHT22;4624;48.126;11.546;2023-04-01T15:42:45;10.10;96.60
9179;DHT22;4624;48.126;11.546;2023-04-01T15:45:21;10.20;96.30
9179;DHT22;4624;48.126;11.546;2023-04-01T15:48:11;10.20;96.30
9179;DHT22;4624;48.126;11.546;2023-04-01T15:51:10;10.30;96.30
9179;DHT22;4624;48.126;11.546;2023-04-01T15:53:51;10.30;96.20
9179;DHT22;4624;48.126;11.546;2023-04-01T15:56:30;10.40;96.00
9179;DHT22;4624;48.126;11.546;2023-04-01T15:59:14;10.40;95.50
9179;DHT22;4624;48.126;11.546;2023-04-01T16:01:51;10.40;95.10
9179;DHT22;4624;48.126;11.546;2023-04-01T16:07:54;10.40;94.80
9179;DHT22;4624;48.126;11.546;2023-04-01T16:10:38;10.40;94.50
9179;DHT22;4624;48.126;11.546;2023-04-01T16:13:24;10.40;94.10
9179;DHT22;4624;48.126;11.546;2023-04-01T16:16:00;10.40;93.70
9179;DHT22;4624;48.126;11.546;2023-04-01T16:18:53;10.30;93.50
9179;DHT22;4624;48.126;11.546;2023-04-01T16:21:36;10.30;93.60
9179;DHT22;4624;48.126;11.546;2023-04-01T16:24:13;10.30;93.60
9179;DHT22;4624;48.126;11.546;2023-04-01T16:26:47;10.20;93.30
9179;DHT22;4624;48.126;11.546;2023-04-01T16:29:22;10.20;93.40
9179;DHT22;4624;48.126;11.546;2023-04-01T16:31:58;10.20;93.50
9179;DHT22;4624;48.126;11.546;2023-04-01T16:34:30;10.20;93.40
9179;DHT22;4624;48.126;11.546;2023-04-01T16:37:05;10.20;93.20
9179;DHT22;4624;48.126;11.546;2023-04-01T16:39:37;10.20;93.30
9179;DHT22;4624;48.126;11.546;2023-04-01T16:42:24;10.10;93.20
9179;DHT22;4624;48.126;11.546;2023-04-01T16:44:55;10.10;93.20
9179;DHT22;4624;48.126;11.546;2023-04-01T16:47:26;10.10;93.00
9179;DHT22;4624;48.126;11.546;2023-04-01T16:49:58;10.10;93.10
9179;DHT22;4624;48.126;11.546;2023-04-01T16:52:53;10.00;93.00
9179;DHT22;4624;48.126;11.546;2023-04-01T16:55:34;10.00;92.90
9179;DHT22;4624;48.126;11.546;2023-04-01T16:58:02;10.00;92.70
9179;DHT22;4624;48.126;11.546;2023-04-01T17:00:37;9.90;93.10
9179;DHT22;4624;48.126;11.546;2023-04-01T17:03:11;9.80;93.10
9179;DHT22;4624;48.126;11.546;2023-04-01T17:05:54;9.90;93.10
9179;DHT22;4624;48.126;11.546;2023-04-01T17:08:34;9.80;92.90
9179;DHT22;4624;48.126;11.546;2023-04-01T17:11:09;9.80;92.80
9179;DHT22;4624;48.126;11.546;2023-04-01T17:13:46;9.80;92.80
9179;DHT22;4624;48.126;11.546;2023-04-01T17:16:32;9.80;92.80
9179;DHT22;4624;48.126;11.546;2023-04-01T17:19:08;9.70;92.80
9179;DHT22;4624;48.126;11.546;2023-04-01T17:21:49;9.70;92.80
9179;DHT22;4624;48.126;11.546;2023-04-01T17:24:38;9.80;92.90
9179;DHT22;4624;48.126;11.546;2023-04-01T17:27:18;9.80;92.90
9179;DHT22;4624;48.126;11.546;2023-04-01T17:30:22;9.80;93.10
9179;DHT22;4624;48.126;11.546;2023-04-01T17:33:15;9.70;93.00
9179;DHT22;4624;48.126;11.546;2023-04-01T17:35:54;9.70;93.00
9179;DHT22;4624;48.126;11.546;2023-04-01T17:38:40;9.70;93.00
9179;DHT22;4624;48.126;11.546;2023-04-01T17:41:19;9.70;93.00
9179;DHT22;4624;48.126;11.546;2023-04-01T17:43:56;9.70;92.90
9179;DHT22;4624;48.126;11.546;2023-04-01T17:46:34;9.70;92.90
9179;DHT22;4624;48.126;11.546;2023-04-01T17:49:18;9.70;92.90
9179;DHT22;4624;48.126;11.546;2023-04-01T17:51:51;9.70;92.90
9179;DHT22;4624;48.126;11.546;2023-04-01T17:54:26;9.70;92.90
9179;DHT22;4624;48.126;11.546;2023-04-01T17:57:02;9.70;92.90
9179;DHT22;4624;48.126;11.546;2023-04-01T17:59:37;9.70;92.90
9179;DHT22;4624;48.126;11.546;2023-04-01T18:02:15;9.60;92.80